sensor_id;sensor_type;location;lat;lon;timestamp;temperature;humidity
23744;DHT22;12052;53.478;10.182;2022-11-11T00:00:32;12.10;99.90
23744;DHT22;12052;53.478;10.182;2022-11-11T00:02:58;12.10;99.90
23744;DHT22;12052;53.478;10.182;2022-11-11T00:05:25;12.10;99.90
23744;DHT22;12052;53.478;10.182;2022-11-11T00:07:57;12.00;99.90
23744;DHT22;12052;53.478;10.182;2022-11-11T00:10:26;12.00;99.90
23744;DHT22;12052;53.478;10.182;2022-11-11T00:12:52;12.00;99.90
23744;DHT22;12052;53.478;10.182;2022-11-11T00:15:18;12.00;99.90
23744;DHT22;12052;53.478;10.182;2022-11-11T00:17:43;12.00;99.90
23744;DHT22;12052;53.478;10.182;2022-11-11T00:20:27;12.00;99.90
23744;DHT22;12052;53.478;10.182;2022-11-11T00:23:22;12.00;99.90
23744;DHT22;12052;53.478;10.182;2022-11-11T00:26:08;12.00;99.90
23744;DHT22;12052;53.478;10.182;2022-11-11T00:28:35;12.00;99.90
23744;DHT22;12052;53.478;10.182;2022-11-11T00:31:05;12.00;99.90
23744;DHT22;12052;53.478;10.182;2022-11-11T00:33:32;12.00;99.90
23744;DHT22;12052;53.478;10.182;2022-11-11T00:35:57;11.90;99.90
23744;DHT22;12052;53.478;10.182;2022-11-11T00:38:23;11.90;99.90
23744;DHT22;12052;53.478;10.182;2022-11-11T00:41:08;11.90;99.90
23744;DHT22;12052;53.478;10.182;2022-11-11T00:43:34;12.00;99.90
23744;DHT22;12052;53.478;10.182;2022-11-11T00:46:00;11.90;99.90
23744;DHT22;12052;53.478;10.182;2022-11-11T00:48:44;11.90;99.90
23744;DHT22;12052;53.478;10.182;2022-11-11T00:51:28;12.00;99.90
23744;DHT22;12052;53.478;10.182;2022-11-11T00:53:54;12.00;99.90
23744;DHT22;12052;53.478;10.182;2022-11-11T00:56:21;12.00;99.90
23744;DHT22;12052;53.478;10.182;2022-11-11T00:58:47;11.90;99.90
23744;DHT22;12052;53.478;10.182;2022-11-11T01:01:12;11.90;99.90
23744;DHT22;12052;53.478;10.182;2022-11-11T01:03:38;11.90;99.90
23744;DHT22;12052;53.478;10.182;2022-11-11T01:06:04;11.90;99.90
23744;DHT22;12052;53.478;10.182;2022-11-11T01:08:31;11.90;99.90
23744;DHT22;12052;53.478;10.182;2022-11-11T01:10:56;11.90;99.90
23744;DHT22;12052;53.478;10.182;2022-11-11T01:13:25;11.90;99.90
23744;DHT22;12052;53.478;10.182;2022-11-11T01:15:56;11.90;99.90
23744;DHT22;12052;53.478;10.182;2022-11-11T01:18:23;11.90;99.90
23744;DHT22;12052;53.478;10.182;2022-11-11T01:21:00;11.90;99.90
23744;DHT22;12052;53.478;10.182;2022-11-11T01:23:26;11.90;99.90
23744;DHT22;12052;53.478;10.182;2022-11-11T01:25:52;11.90;99.90
23744;DHT22;12052;53.478;10.182;2022-11-11T01:28:18;11.90;99.90
23744;DHT22;12052;53.478;10.182;2022-11-11T01:30:43;11.90;99.90
23744;DHT22;12052;53.478;10.182;2022-11-11T01:33:10;11.90;99.90
23744;DHT22;12052;53.478;10.182;2022-11-11T01:35:40;11.90;99.90
23744;DHT22;12052;53.478;10.182;2022-11-11T01:38:07;11.90;99.90
23744;DHT22;12052;53.478;10.182;2022-11-11T01:40:45;11.90;99.90
23744;DHT22;12052;53.478;10.182;2022-11-11T01:45:56;11.90;99.90
23744;DHT22;12052;53.478;10.182;2022-11-11T01:48:34;11.90;99.90
23744;DHT22;12052;53.478;10.182;2022-11-11T01:51:41;11.90;99.90
23744;DHT22;12052;53.478;10.182;2022-11-11T01:54:14;11.90;99.90
23744;DHT22;12052;53.478;10.182;2022-11-11T01:56:43;11.90;99.90
23744;DHT22;12052;53.478;10.182;2022-11-11T01:59:13;11.90;99.90
23744;DHT22;12052;53.478;10.182;2022-11-11T02:01:42;11.90;99.90
23744;DHT22;12052;53.478;10.182;2022-11-11T02:04:09;11.90;99.90
23744;DHT22;12052;53.478;10.182;2022-11-11T02:06:57;11.90;99.90
23744;DHT22;12052;53.478;10.182;2022-11-11T02:09:25;11.90;99.90
23744;DHT22;12052;53.478;10.182;2022-11-11T02:11:51;11.90;99.90
23744;DHT22;12052;53.478;10.182;2022-11-11T02:14:42;11.80;99.90
23744;DHT22;12052;53.478;10.182;2022-11-11T02:17:10;11.80;99.90
23744;DHT22;12052;53.478;10.182;2022-11-11T02:19:41;11.80;99.90
23744;DHT22;12052;53.478;10.182;2022-11-11T02:22:25;11.80;99.90
23744;DHT22;12052;53.478;10.182;2022-11-11T02:24:53;11.80;99.90
23744;DHT22;12052;53.478;10.182;2022-11-11T02:27:20;11.80;99.90
23744;DHT22;12052;53.478;10.182;2022-11-11T02:29:49;11.80;99.90
23744;DHT22;12052;53.478;10.182;2022-11-11T02:32:17;11.80;99.90
23744;DHT22;12052;53.478;10.182;2022-11-11T02:34:42;11.70;99.90
23744;DHT22;12052;53.478;10.182;2022-11-11T02:37:09;11.80;99.90
23744;DHT22;12052;53.478;10.182;2022-11-11T02:39:40;11.70;99.90
23744;DHT22;12052;53.478;10.182;2022-11-11T02:42:07;11.70;99.90
23744;DHT22;12052;53.478;10.182;2022-11-11T02:44:35;11.70;99.90
23744;DHT22;12052;53.478;10.182;2022-11-11T02:47:04;11.70;99.90
23744;DHT22;12052;53.478;10.182;2022-11-11T02:49:30;11.70;99.90
23744;DHT22;12052;53.478;10.182;2022-11-11T02:51:56;11.60;99.90
23744;DHT22;12052;53.478;10.182;2022-11-11T02:54:22;11.70;99.90
23744;DHT22;12052;53.478;10.182;2022-11-11T02:56:47;11.60;99.90
23744;DHT22;12052;53.478;10.182;2022-11-11T02:59:32;11.60;99.90
23744;DHT22;12052;53.478;10.182;2022-11-11T03:01:58;11.70;99.90
23744;DHT22;12052;53.478;10.182;2022-11-11T03:04:23;11.60;99.90
23744;DHT22;12052;53.478;10.182;2022-11-11T03:06:49;11.60;99.90
23744;DHT22;12052;53.478;10.182;2022-11-11T03:09:14;11.60;99.90
23744;DHT22;12052;53.478;10.182;2022-11-11T03:11:40;11.60;99.90
23744;DHT22;12052;53.478;10.182;2022-11-11T03:14:06;11.60;99.90
23744;DHT22;12052;53.478;10.182;2022-11-11T03:16:33;11.60;99.90
23744;DHT22;12052;53.478;10.182;2022-11-11T03:19:19;11.60;99.90
23744;DHT22;12052;53.478;10.182;2022-11-11T03:21:44;11.60;99.90
23744;DHT22;12052;53.478;10.182;2022-11-11T03:24:10;11.60;99.90
23744;DHT22;12052;53.478;10.182;2022-11-11T03:26:36;11.50;99.90
23744;DHT22;12052;53.478;10.182;2022-11-11T03:29:03;11.50;99.90
23744;DHT22;12052;53.478;10.182;2022-11-11T03:31:28;11.60;99.90
23744;DHT22;12052;53.478;10.182;2022-11-11T03:33:54;11.50;99.90
23744;DHT22;12052;53.478;10.182;2022-11-11T03:36:20;11.50;99.90
23744;DHT22;12052;53.478;10.182;2022-11-11T03:39:05;11.50;99.90
23744;DHT22;12052;53.478;10.182;2022-11-11T03:41:31;11.50;99.90
23744;DHT22;12052;53.478;10.182;2022-11-11T03:43:56;11.50;99.90
23744;DHT22;12052;53.478;10.182;2022-11-11T03:46:22;11.50;99.90
23744;DHT22;12052;53.478;10.182;2022-11-11T03:48:47;11.40;99.90
23744;DHT22;12052;53.478;10.182;2022-11-11T03:51:13;11.50;99.90
23744;DHT22;12052;53.478;10.182;2022-11-11T03:53:38;11.50;99.90
23744;DHT22;12052;53.478;10.182;2022-11-11T03:56:04;11.50;99.90
23744;DHT22;12052;53.478;10.182;2022-11-11T03:58:30;11.40;99.90
23744;DHT22;12052;53.478;10.182;2022-11-11T04:00:55;11.40;99.90
23744;DHT22;12052;53.478;10.182;2022-11-11T04:03:21;11.40;99.90
23744;DHT22;12052;53.478;10.182;2022-11-11T04:06:07;11.40;99.90
23744;DHT22;12052;53.478;10.182;2022-11-11T04:08:52;11.40;99.90
23744;DHT22;12052;53.478;10.182;2022-11-11T04:11:41;11.40;99.90
23744;DHT22;12052;53.478;10.182;2022-11-11T04:14:09;11.40;99.90
23744;DHT22;12052;53.478;10.182;2022-11-11T04:16:54;11.40;99.90
23744;DHT22;12052;53.478;10.182;2022-11-11T04:19:20;11.30;99.90
23744;DHT22;12052;53.478;10.182;2022-11-11T04:22:09;11.30;99.90
23744;DHT22;12052;53.478;10.182;2022-11-11T04:24:35;11.30;99.90
23744;DHT22;12052;53.478;10.182;2022-11-11T04:27:19;11.30;99.90
23744;DHT22;12052;53.478;10.182;2022-11-11T04:29:45;11.30;99.90
23744;DHT22;12052;53.478;10.182;2022-11-11T04:32:19;11.30;99.90
23744;DHT22;12052;53.478;10.182;2022-11-11T04:35:08;11.30;99.90
23744;DHT22;12052;53.478;10.182;2022-11-11T04:37:35;11.20;99.90
23744;DHT22;12052;53.478;10.182;2022-11-11T04:40:02;11.20;99.90
23744;DHT22;12052;53.478;10.182;2022-11-11T04:42:46;11.20;99.90
23744;DHT22;12052;53.478;10.182;2022-11-11T04:45:13;11.20;99.90
23744;DHT22;12052;53.478;10.182;2022-11-11T04:48:10;11.10;99.90
23744;DHT22;12052;53.478;10.182;2022-11-11T04:50:41;11.10;99.90
23744;DHT22;12052;53.478;10.182;2022-11-11T04:53:10;11.10;99.90
23744;DHT22;12052;53.478;10.182;2022-11-11T04:55:37;11.10;99.90
23744;DHT22;12052;53.478;10.182;2022-11-11T04:58:23;11.10;99.90
23744;DHT22;12052;53.478;10.182;2022-11-11T05:00:48;11.20;99.90
23744;DHT22;12052;53.478;10.182;2022-11-11T05:03:15;11.10;99.90
23744;DHT22;12052;53.478;10.182;2022-11-11T05:05:45;11.10;99.90
23744;DHT22;12052;53.478;10.182;2022-11-11T05:08:30;11.10;99.90
23744;DHT22;12052;53.478;10.182;2022-11-11T05:11:14;11.10;99.90
23744;DHT22;12052;53.478;10.182;2022-11-11T05:13:40;11.10;99.90
23744;DHT22;12052;53.478;10.182;2022-11-11T05:16:28;11.10;99.90
23744;DHT22;12052;53.478;10.182;2022-11-11T05:19:14;11.00;99.90
23744;DHT22;12052;53.478;10.182;2022-11-11T05:22:31;11.00;99.90
23744;DHT22;12052;53.478;10.182;2022-11-11T05:24:57;10.90;99.90
23744;DHT22;12052;53.478;10.182;2022-11-11T05:27:42;10.90;99.90
23744;DHT22;12052;53.478;10.182;2022-11-11T05:30:09;10.90;99.90
23744;DHT22;12052;53.478;10.182;2022-11-11T05:32:36;10.90;99.90
23744;DHT22;12052;53.478;10.182;2022-11-11T05:35:02;10.90;99.90
23744;DHT22;12052;53.478;10.182;2022-11-11T05:37:28;10.90;99.90
23744;DHT22;12052;53.478;10.182;2022-11-11T05:39:53;10.90;99.90
23744;DHT22;12052;53.478;10.182;2022-11-11T05:42:19;10.90;99.90
23744;DHT22;12052;53.478;10.182;2022-11-11T05:44:44;10.90;99.90
23744;DHT22;12052;53.478;10.182;2022-11-11T05:47:10;10.90;99.90
23744;DHT22;12052;53.478;10.182;2022-11-11T05:49:36;10.90;99.90
23744;DHT22;12052;53.478;10.182;2022-11-11T05:52:03;10.90;99.90
23744;DHT22;12052;53.478;10.182;2022-11-11T05:54:29;10.90;99.90
23744;DHT22;12052;53.478;10.182;2022-11-11T05:56:54;10.80;99.90
23744;DHT22;12052;53.478;10.182;2022-11-11T05:59:20;10.80;99.90
23744;DHT22;12052;53.478;10.182;2022-11-11T06:01:46;10.80;99.90
23744;DHT22;12052;53.478;10.182;2022-11-11T06:04:11;10.90;99.90
23744;DHT22;12052;53.478;10.182;2022-11-11T06:06:37;10.80;99.90
23744;DHT22;12052;53.478;10.182;2022-11-11T06:09:03;10.80;99.90
23744;DHT22;12052;53.478;10.182;2022-11-11T06:11:28;10.80;99.90
23744;DHT22;12052;53.478;10.182;2022-11-11T06:13:54;10.80;99.90
23744;DHT22;12052;53.478;10.182;2022-11-11T06:16:21;10.80;99.90
23744;DHT22;12052;53.478;10.182;2022-11-11T06:18:46;10.80;99.90
23744;DHT22;12052;53.478;10.182;2022-11-11T06:21:12;10.80;99.90
23744;DHT22;12052;53.478;10.182;2022-11-11T06:23:38;10.80;99.90
23744;DHT22;12052;53.478;10.182;2022-11-11T06:26:04;10.80;99.90
23744;DHT22;12052;53.478;10.182;2022-11-11T06:28:43;10.80;99.90
23744;DHT22;12052;53.478;10.182;2022-11-11T06:31:12;10.80;99.90
23744;DHT22;12052;53.478;10.182;2022-11-11T06:33:38;10.80;99.90
23744;DHT22;12052;53.478;10.182;2022-11-11T06:36:05;10.80;99.90
23744;DHT22;12052;53.478;10.182;2022-11-11T06:38:31;10.80;99.90
23744;DHT22;12052;53.478;10.182;2022-11-11T06:40:57;10.80;99.90
23744;DHT22;12052;53.478;10.182;2022-11-11T06:43:23;10.80;99.90
23744;DHT22;12052;53.478;10.182;2022-11-11T06:45:50;10.80;99.90
23744;DHT22;12052;53.478;10.182;2022-11-11T06:48:16;10.80;99.90
23744;DHT22;12052;53.478;10.182;2022-11-11T06:50:42;10.80;99.90
23744;DHT22;12052;53.478;10.182;2022-11-11T06:53:09;10.80;99.90
23744;DHT22;12052;53.478;10.182;2022-11-11T06:55:35;10.70;99.90
23744;DHT22;12052;53.478;10.182;2022-11-11T06:58:15;10.80;99.90
23744;DHT22;12052;53.478;10.182;2022-11-11T07:00:41;10.70;99.90
23744;DHT22;12052;53.478;10.182;2022-11-11T07:03:10;10.80;99.90
23744;DHT22;12052;53.478;10.182;2022-11-11T07:05:36;10.70;99.90
23744;DHT22;12052;53.478;10.182;2022-11-11T07:08:06;10.70;99.90
23744;DHT22;12052;53.478;10.182;2022-11-11T07:10:34;10.70;99.90
23744;DHT22;12052;53.478;10.182;2022-11-11T07:13:00;10.70;99.90
23744;DHT22;12052;53.478;10.182;2022-11-11T07:15:25;10.70;99.90
23744;DHT22;12052;53.478;10.182;2022-11-11T07:17:51;10.70;99.90
23744;DHT22;12052;53.478;10.182;2022-11-11T07:20:17;10.70;99.90
23744;DHT22;12052;53.478;10.182;2022-11-11T07:22:42;10.70;99.90
23744;DHT22;12052;53.478;10.182;2022-11-11T07:25:08;10.70;99.90
23744;DHT22;12052;53.478;10.182;2022-11-11T07:27:38;10.70;99.90
23744;DHT22;12052;53.478;10.182;2022-11-11T07:30:04;10.70;99.90
23744;DHT22;12052;53.478;10.182;2022-11-11T07:32:30;10.70;99.90
23744;DHT22;12052;53.478;10.182;2022-11-11T07:34:55;10.70;99.90
23744;DHT22;12052;53.478;10.182;2022-11-11T07:37:21;10.70;99.90
23744;DHT22;12052;53.478;10.182;2022-11-11T07:39:47;10.70;99.90
23744;DHT22;12052;53.478;10.182;2022-11-11T07:42:12;10.70;99.90
23744;DHT22;12052;53.478;10.182;2022-11-11T07:44:38;10.70;99.90
23744;DHT22;12052;53.478;10.182;2022-11-11T07:47:04;10.70;99.90
23744;DHT22;12052;53.478;10.182;2022-11-11T07:49:29;10.70;99.90
23744;DHT22;12052;53.478;10.182;2022-11-11T07:51:55;10.70;99.90
23744;DHT22;12052;53.478;10.182;2022-11-11T07:54:21;10.70;99.90
23744;DHT22;12052;53.478;10.182;2022-11-11T07:56:46;10.70;99.90
23744;DHT22;12052;53.478;10.182;2022-11-11T07:59:12;10.70;99.90
23744;DHT22;12052;53.478;10.182;2022-11-11T08:01:37;10.70;99.90
23744;DHT22;12052;53.478;10.182;2022-11-11T08:04:03;10.70;99.90
23744;DHT22;12052;53.478;10.182;2022-11-11T08:06:29;10.70;99.90
23744;DHT22;12052;53.478;10.182;2022-11-11T08:08:54;10.70;99.90
23744;DHT22;12052;53.478;10.182;2022-11-11T08:11:20;10.70;99.90
23744;DHT22;12052;53.478;10.182;2022-11-11T08:14:06;10.80;99.90
23744;DHT22;12052;53.478;10.182;2022-11-11T08:16:31;10.80;99.90
23744;DHT22;12052;53.478;10.182;2022-11-11T08:18:57;10.70;99.90
23744;DHT22;12052;53.478;10.182;2022-11-11T08:21:23;10.80;99.90
23744;DHT22;12052;53.478;10.182;2022-11-11T08:23:49;10.80;99.90
23744;DHT22;12052;53.478;10.182;2022-11-11T08:26:16;10.80;99.90
23744;DHT22;12052;53.478;10.182;2022-11-11T08:28:42;10.80;99.90
23744;DHT22;12052;53.478;10.182;2022-11-11T08:31:08;10.90;99.90
23744;DHT22;12052;53.478;10.182;2022-11-11T08:33:35;10.90;99.90
23744;DHT22;12052;53.478;10.182;2022-11-11T08:36:01;10.90;99.90
23744;DHT22;12052;53.478;10.182;2022-11-11T08:38:27;10.90;99.90
23744;DHT22;12052;53.478;10.182;2022-11-11T08:40:53;10.90;99.90
23744;DHT22;12052;53.478;10.182;2022-11-11T08:43:19;11.00;99.90
23744;DHT22;12052;53.478;10.182;2022-11-11T08:45:45;11.00;99.90
23744;DHT22;12052;53.478;10.182;2022-11-11T08:48:10;11.00;99.90
23744;DHT22;12052;53.478;10.182;2022-11-11T08:50:37;11.00;99.90
23744;DHT22;12052;53.478;10.182;2022-11-11T08:53:08;11.10;99.90
23744;DHT22;12052;53.478;10.182;2022-11-11T08:55:35;11.10;99.90
23744;DHT22;12052;53.478;10.182;2022-11-11T08:58:03;11.10;99.90
23744;DHT22;12052;53.478;10.182;2022-11-11T09:00:29;11.10;99.90
23744;DHT22;12052;53.478;10.182;2022-11-11T09:03:00;11.10;99.90
23744;DHT22;12052;53.478;10.182;2022-11-11T09:05:26;11.20;99.90
23744;DHT22;12052;53.478;10.182;2022-11-11T09:07:52;11.20;99.90
23744;DHT22;12052;53.478;10.182;2022-11-11T09:10:17;11.20;99.90
23744;DHT22;12052;53.478;10.182;2022-11-11T09:12:43;11.20;99.90
23744;DHT22;12052;53.478;10.182;2022-11-11T09:15:09;11.20;99.90
23744;DHT22;12052;53.478;10.182;2022-11-11T09:17:34;11.20;99.90
23744;DHT22;12052;53.478;10.182;2022-11-11T09:20:00;11.20;99.90
23744;DHT22;12052;53.478;10.182;2022-11-11T09:22:25;11.20;99.90
23744;DHT22;12052;53.478;10.182;2022-11-11T09:24:51;11.20;99.90
23744;DHT22;12052;53.478;10.182;2022-11-11T09:27:17;11.30;99.90
23744;DHT22;12052;53.478;10.182;2022-11-11T09:29:42;11.20;99.90
23744;DHT22;12052;53.478;10.182;2022-11-11T09:32:08;11.20;99.90
23744;DHT22;12052;53.478;10.182;2022-11-11T09:34:33;11.20;99.90
23744;DHT22;12052;53.478;10.182;2022-11-11T09:36:59;11.20;99.90
23744;DHT22;12052;53.478;10.182;2022-11-11T09:39:24;11.20;99.90
23744;DHT22;12052;53.478;10.182;2022-11-11T09:50:11;11.20;99.90
23744;DHT22;12052;53.478;10.182;2022-11-11T09:52:49;11.30;99.90
23744;DHT22;12052;53.478;10.182;2022-11-11T09:55:21;11.30;99.90
23744;DHT22;12052;53.478;10.182;2022-11-11T09:57:52;11.30;99.90
23744;DHT22;12052;53.478;10.182;2022-11-11T10:00:27;11.30;99.90
23744;DHT22;12052;53.478;10.182;2022-11-11T10:03:00;11.30;99.90
23744;DHT22;12052;53.478;10.182;2022-11-11T10:08:25;11.20;99.90
23744;DHT22;12052;53.478;10.182;2022-11-11T10:10:54;11.20;99.90
23744;DHT22;12052;53.478;10.182;2022-11-11T10:13:48;11.20;99.90
23744;DHT22;12052;53.478;10.182;2022-11-11T10:16:23;11.20;99.90
23744;DHT22;12052;53.478;10.182;2022-11-11T10:19:16;11.20;99.90
23744;DHT22;12052;53.478;10.182;2022-11-11T10:21:50;11.20;99.90
23744;DHT22;12052;53.478;10.182;2022-11-11T10:24:31;11.30;99.90
23744;DHT22;12052;53.478;10.182;2022-11-11T10:27:09;11.20;99.90
23744;DHT22;12052;53.478;10.182;2022-11-11T10:29:41;11.20;99.90
23744;DHT22;12052;53.478;10.182;2022-11-11T10:32:27;11.30;99.90
23744;DHT22;12052;53.478;10.182;2022-11-11T10:34:59;11.30;99.90
23744;DHT22;12052;53.478;10.182;2022-11-11T10:37:38;11.30;99.90
23744;DHT22;12052;53.478;10.182;2022-11-11T10:40:28;11.20;99.90
23744;DHT22;12052;53.478;10.182;2022-11-11T10:42:54;11.20;99.90
23744;DHT22;12052;53.478;10.182;2022-11-11T10:45:27;11.20;99.90
23744;DHT22;12052;53.478;10.182;2022-11-11T10:48:00;11.30;99.90
23744;DHT22;12052;53.478;10.182;2022-11-11T10:50:43;11.20;99.90
23744;DHT22;12052;53.478;10.182;2022-11-11T11:01:39;11.20;99.90
23744;DHT22;12052;53.478;10.182;2022-11-11T11:04:19;11.20;99.90
23744;DHT22;12052;53.478;10.182;2022-11-11T11:06:51;11.20;99.90
23744;DHT22;12052;53.478;10.182;2022-11-11T11:09:19;11.20;99.90
23744;DHT22;12052;53.478;10.182;2022-11-11T11:11:58;11.20;99.90
23744;DHT22;12052;53.478;10.182;2022-11-11T11:14:34;11.20;99.90
23744;DHT22;12052;53.478;10.182;2022-11-11T11:17:12;11.20;99.90
23744;DHT22;12052;53.478;10.182;2022-11-11T11:19:39;11.20;99.90
23744;DHT22;12052;53.478;10.182;2022-11-11T11:22:05;11.20;99.90
23744;DHT22;12052;53.478;10.182;2022-11-11T11:24:32;11.20;99.90
23744;DHT22;12052;53.478;10.182;2022-11-11T11:27:00;11.20;99.90
23744;DHT22;12052;53.478;10.182;2022-11-11T11:32:20;11.20;99.90
23744;DHT22;12052;53.478;10.182;2022-11-11T11:37:12;11.20;99.90
23744;DHT22;12052;53.478;10.182;2022-11-11T11:39:39;11.20;99.90
23744;DHT22;12052;53.478;10.182;2022-11-11T11:42:05;11.20;99.90
23744;DHT22;12052;53.478;10.182;2022-11-11T11:44:32;11.20;99.90
23744;DHT22;12052;53.478;10.182;2022-11-11T11:47:14;11.20;99.90
23744;DHT22;12052;53.478;10.182;2022-11-11T11:55:15;11.20;99.90
23744;DHT22;12052;53.478;10.182;2022-11-11T12:21:34;11.40;99.90
23744;DHT22;12052;53.478;10.182;2022-11-11T13:00:23;11.50;99.90
23744;DHT22;12052;53.478;10.182;2022-11-11T13:05:22;11.50;99.90
23744;DHT22;12052;53.478;10.182;2022-11-11T13:13:56;11.60;99.90
23744;DHT22;12052;53.478;10.182;2022-11-11T13:16:25;11.60;99.90
23744;DHT22;12052;53.478;10.182;2022-11-11T13:19:32;11.60;99.90
23744;DHT22;12052;53.478;10.182;2022-11-11T13:22:06;11.60;99.90
23744;DHT22;12052;53.478;10.182;2022-11-11T13:24:34;11.60;99.90
23744;DHT22;12052;53.478;10.182;2022-11-11T13:27:03;11.60;99.90
23744;DHT22;12052;53.478;10.182;2022-11-11T13:30:01;11.50;99.90
23744;DHT22;12052;53.478;10.182;2022-11-11T13:32:42;11.60;99.90
23744;DHT22;12052;53.478;10.182;2022-11-11T13:35:37;11.60;99.90
23744;DHT22;12052;53.478;10.182;2022-11-11T13:38:05;11.60;99.90
23744;DHT22;12052;53.478;10.182;2022-11-11T13:40:35;11.50;99.90
23744;DHT22;12052;53.478;10.182;2022-11-11T13:43:02;11.60;99.90
23744;DHT22;12052;53.478;10.182;2022-11-11T13:45:41;11.60;99.90
23744;DHT22;12052;53.478;10.182;2022-11-11T13:48:24;11.60;99.90
23744;DHT22;12052;53.478;10.182;2022-11-11T13:50:50;11.60;99.90
23744;DHT22;12052;53.478;10.182;2022-11-11T13:53:42;11.60;99.90
23744;DHT22;12052;53.478;10.182;2022-11-11T13:56:11;11.70;99.90
23744;DHT22;12052;53.478;10.182;2022-11-11T13:58:47;11.60;99.90
23744;DHT22;12052;53.478;10.182;2022-11-11T14:01:13;11.60;99.90
23744;DHT22;12052;53.478;10.182;2022-11-11T14:13:58;11.70;99.90
23744;DHT22;12052;53.478;10.182;2022-11-11T14:21:52;11.80;99.90
23744;DHT22;12052;53.478;10.182;2022-11-11T14:24:34;11.80;99.90
23744;DHT22;12052;53.478;10.182;2022-11-11T14:27:16;11.80;99.90
23744;DHT22;12052;53.478;10.182;2022-11-11T14:29:53;11.80;99.90
23744;DHT22;12052;53.478;10.182;2022-11-11T14:35:28;11.80;99.90
23744;DHT22;12052;53.478;10.182;2022-11-11T14:40:31;11.90;99.90
23744;DHT22;12052;53.478;10.182;2022-11-11T14:42:58;11.90;99.90
23744;DHT22;12052;53.478;10.182;2022-11-11T14:47:57;11.80;99.90
23744;DHT22;12052;53.478;10.182;2022-11-11T14:52:59;11.80;99.90
23744;DHT22;12052;53.478;10.182;2022-11-11T14:55:28;11.80;99.90
23744;DHT22;12052;53.478;10.182;2022-11-11T14:57:58;11.80;99.90
23744;DHT22;12052;53.478;10.182;2022-11-11T15:00:28;11.80;99.90
23744;DHT22;12052;53.478;10.182;2022-11-11T15:03:00;11.70;99.90
23744;DHT22;12052;53.478;10.182;2022-11-11T15:05:41;11.70;99.90
23744;DHT22;12052;53.478;10.182;2022-11-11T15:08:23;11.60;99.90
23744;DHT22;12052;53.478;10.182;2022-11-11T15:19:26;11.40;99.90
23744;DHT22;12052;53.478;10.182;2022-11-11T15:27:53;11.30;99.90
23744;DHT22;12052;53.478;10.182;2022-11-11T15:30:22;11.20;99.90
23744;DHT22;12052;53.478;10.182;2022-11-11T15:38:14;11.10;99.90
23744;DHT22;12052;53.478;10.182;2022-11-11T15:40:47;11.00;99.90
23744;DHT22;12052;53.478;10.182;2022-11-11T15:43:22;11.00;99.90
23744;DHT22;12052;53.478;10.182;2022-11-11T15:45:57;10.90;99.90
23744;DHT22;12052;53.478;10.182;2022-11-11T15:48:38;10.90;99.90
23744;DHT22;12052;53.478;10.182;2022-11-11T15:53:45;10.80;99.90
23744;DHT22;12052;53.478;10.182;2022-11-11T15:56:14;10.70;99.90
23744;DHT22;12052;53.478;10.182;2022-11-11T15:58:50;10.70;99.90
23744;DHT22;12052;53.478;10.182;2022-11-11T16:01:16;10.70;99.90
23744;DHT22;12052;53.478;10.182;2022-11-11T16:03:43;10.60;99.90
23744;DHT22;12052;53.478;10.182;2022-11-11T16:06:13;10.60;99.90
23744;DHT22;12052;53.478;10.182;2022-11-11T16:08:44;10.60;99.90
23744;DHT22;12052;53.478;10.182;2022-11-11T16:11:15;10.50;99.90
23744;DHT22;12052;53.478;10.182;2022-11-11T16:16:38;10.50;99.90
23744;DHT22;12052;53.478;10.182;2022-11-11T16:21:50;10.50;99.90
23744;DHT22;12052;53.478;10.182;2022-11-11T16:26:48;10.50;99.90
23744;DHT22;12052;53.478;10.182;2022-11-11T16:29:15;10.50;99.90
23744;DHT22;12052;53.478;10.182;2022-11-11T16:31:42;10.50;99.90
23744;DHT22;12052;53.478;10.182;2022-11-11T16:37:05;10.50;99.90
23744;DHT22;12052;53.478;10.182;2022-11-11T16:39:33;10.50;99.90
23744;DHT22;12052;53.478;10.182;2022-11-11T16:42:03;10.60;99.90
23744;DHT22;12052;53.478;10.182;2022-11-11T16:44:40;10.60;99.90
23744;DHT22;12052;53.478;10.182;2022-11-11T16:47:39;10.60;99.90
23744;DHT22;12052;53.478;10.182;2022-11-11T16:55:25;10.60;99.90
23744;DHT22;12052;53.478;10.182;2022-11-11T16:57:56;10.50;99.90
23744;DHT22;12052;53.478;10.182;2022-11-11T17:00:22;10.60;99.90
23744;DHT22;12052;53.478;10.182;2022-11-11T17:03:24;10.60;99.90
23744;DHT22;12052;53.478;10.182;2022-11-11T17:05:55;10.50;99.90
23744;DHT22;12052;53.478;10.182;2022-11-11T17:08:41;10.50;99.90
23744;DHT22;12052;53.478;10.182;2022-11-11T17:11:09;10.50;99.90
23744;DHT22;12052;53.478;10.182;2022-11-11T17:13:35;10.50;99.90
23744;DHT22;12052;53.478;10.182;2022-11-11T17:16:05;10.50;99.90
23744;DHT22;12052;53.478;10.182;2022-11-11T17:18:33;10.60;99.90
23744;DHT22;12052;53.478;10.182;2022-11-11T17:21:01;10.60;99.90
23744;DHT22;12052;53.478;10.182;2022-11-11T17:23:27;10.60;99.90
23744;DHT22;12052;53.478;10.182;2022-11-11T17:25:54;10.50;99.90
23744;DHT22;12052;53.478;10.182;2022-11-11T17:28:20;10.50;99.90
23744;DHT22;12052;53.478;10.182;2022-11-11T17:30:46;10.50;99.90
23744;DHT22;12052;53.478;10.182;2022-11-11T17:33:12;10.50;99.90
23744;DHT22;12052;53.478;10.182;2022-11-11T17:35:37;10.50;99.90
23744;DHT22;12052;53.478;10.182;2022-11-11T17:38:03;10.50;99.90
23744;DHT22;12052;53.478;10.182;2022-11-11T17:40:29;10.50;99.90
23744;DHT22;12052;53.478;10.182;2022-11-11T17:42:55;10.50;99.90
23744;DHT22;12052;53.478;10.182;2022-11-11T17:45:20;10.50;99.90
23744;DHT22;12052;53.478;10.182;2022-11-11T17:47:46;10.50;99.90
23744;DHT22;12052;53.478;10.182;2022-11-11T17:50:11;10.50;99.90
23744;DHT22;12052;53.478;10.182;2022-11-11T17:52:37;10.50;99.90
23744;DHT22;12052;53.478;10.182;2022-11-11T17:55:04;10.50;99.90
23744;DHT22;12052;53.478;10.182;2022-11-11T17:57:30;10.50;99.90
23744;DHT22;12052;53.478;10.182;2022-11-11T17:59:56;10.50;99.90
23744;DHT22;12052;53.478;10.182;2022-11-11T18:02:21;10.50;99.90
23744;DHT22;12052;53.478;10.182;2022-11-11T18:04:47;10.50;99.90
23744;DHT22;12052;53.478;10.182;2022-11-11T18:07:12;10.50;99.90
23744;DHT22;12052;53.478;10.182;2022-11-11T18:09:38;10.50;99.90
23744;DHT22;12052;53.478;10.182;2022-11-11T18:12:04;10.50;99.90
23744;DHT22;12052;53.478;10.182;2022-11-11T18:14:29;10.50;99.90
23744;DHT22;12052;53.478;10.182;2022-11-11T18:16:55;10.50;99.90
23744;DHT22;12052;53.478;10.182;2022-11-11T18:19:21;10.50;99.90
23744;DHT22;12052;53.478;10.182;2022-11-11T18:21:46;10.50;99.90